首页
METAR-TAF:

METAR-TAF

机场 :

維也納新城, 奥地利

纬度: 47-50-36N, 经度: 016-15-29E, 海拔: 272米

当前天气观测

该预报发布于4小时和53分钟前的17:00 UTC
静风
温度
气压

METAR: LOAN 281700Z 00000KT 30KM SCT050CU

时间: 22:53 (21:53 UTC)

预报

该预报发布于10小时和28分钟前的11:25 UTC
预报有效从28日的 12点(UTC)到 28日的 21点(UTC)
风速4节,风向
能见度10公里或以上
少量云层高于4000英尺
成为
从 28日的 14点(UTC)到 28日的 16点(UTC)
风速6节,风向西北

TAF: LOAN 281125Z 2812/2821 10004KT 9999 FEW040 BECMG 2814/2816 32006KT

超过4000个机场的气象观测和天气预报(METAR&TAF报告)。

可查询的气象台以黄色和红色小点在地图上表示。

将鼠标移到小点上方,可查看气象台名称。

然后点击查看天气观测和预报。

如需切换地图:点击带黑十字的绿色按钮放大地图;点击带横线的绿色按钮缩小地图;或者点击绿色箭头查看邻近地区的地图。


METAR-TAF: